Time;durP1;ratioP1;P1;durP2;ratioP2;P2;SDS_P1;SDS_P2;PMS_P1;PMS_P2;Temp;Humidity;BMP_temperature;BMP_pressure;BME280_temperature;BME280_humidity;BME280_pressure;Samples;Min_cycle;Max_cycle;Signal;HPM_P1;HPM_P2
2024/02/10 00:00:21;;;;;;;2.72;2.00;;;11.30;99.90;;;;;;5038473;28;20087;-38
2024/02/10 00:02:48;;;;;;;4.43;2.00;;;11.40;99.90;;;;;;5040164;28;20056;-35
2024/02/10 00:05:15;;;;;;;3.17;1.80;;;11.40;99.90;;;;;;5038607;28;20045;-37
2024/02/10 00:07:45;;;;;;;2.85;2.00;;;11.40;99.90;;;;;;5039618;28;20051;-38
2024/02/10 00:10:11;;;;;;;2.55;2.00;;;11.40;99.90;;;;;;5039557;28;20029;-35
2024/02/10 00:12:40;;;;;;;3.38;2.22;;;11.40;99.90;;;;;;5038878;28;20128;-38
2024/02/10 00:15:07;;;;;;;2.90;1.88;;;11.40;99.90;;;;;;5039414;28;20017;-35
2024/02/10 00:17:32;;;;;;;1.90;1.70;;;11.40;99.90;;;;;;5038779;28;20013;-37
2024/02/10 00:19:59;;;;;;;2.58;2.00;;;11.40;99.90;;;;;;5038628;28;20025;-37
2024/02/10 00:22:25;;;;;;;2.35;1.70;;;11.40;99.90;;;;;;5039103;28;20021;-37
2024/02/10 00:24:51;;;;;;;3.88;1.80;;;11.40;99.90;;;;;;5038798;28;20021;-37
2024/02/10 00:27:17;;;;;;;8.75;3.40;;;11.40;99.90;;;;;;5037973;28;20306;-37
2024/02/10 00:29:46;;;;;;;2.13;1.75;;;11.40;99.90;;;;;;5039078;28;20021;-39
2024/02/10 00:32:12;;;;;;;2.85;1.80;;;11.40;99.90;;;;;;5038697;28;20029;-35
2024/02/10 00:34:39;;;;;;;2.67;1.80;;;11.40;99.90;;;;;;5037268;28;20029;-33
2024/02/10 00:37:06;;;;;;;3.20;1.85;;;11.40;99.90;;;;;;5037388;28;20035;-33
2024/02/10 00:39:35;;;;;;;1.98;1.60;;;11.40;99.90;;;;;;5037249;28;20328;-36
2024/02/10 00:42:01;;;;;;;2.22;1.98;;;11.50;99.90;;;;;;5036952;28;20086;-38
2024/02/10 00:44:30;;;;;;;3.58;1.67;;;11.50;99.90;;;;;;5040715;28;20037;-33
2024/02/10 00:47:00;;;;;;;2.72;1.98;;;11.40;99.90;;;;;;5041229;28;20025;-34
2024/02/10 00:49:26;;;;;;;2.60;1.92;;;11.40;99.90;;;;;;5040407;28;20375;-38
2024/02/10 00:51:54;;;;;;;3.78;1.98;;;11.40;99.90;;;;;;5043111;28;20045;-37
2024/02/10 00:54:27;;;;;;;2.38;1.95;;;11.40;99.90;;;;;;5041285;28;20099;-37
2024/02/10 00:56:53;;;;;;;2.88;1.92;;;11.40;99.90;;;;;;5042475;28;20063;-36
2024/02/10 00:59:19;;;;;;;2.63;1.90;;;11.40;99.90;;;;;;5042539;28;20407;-36
2024/02/10 01:01:44;;;;;;;2.40;1.80;;;11.50;99.90;;;;;;5042501;28;20547;-37
2024/02/10 01:04:12;;;;;;;3.38;2.20;;;11.50;99.90;;;;;;5042602;28;20029;-37
2024/02/10 01:06:40;;;;;;;2.70;2.08;;;11.50;99.90;;;;;;5042994;28;20087;-36
2024/02/10 01:09:07;;;;;;;2.40;2.05;;;11.50;99.90;;;;;;5041893;28;20049;-36
2024/02/10 01:11:33;;;;;;;2.85;2.20;;;11.50;99.90;;;;;;5043287;28;20052;-37
2024/02/10 01:13:59;;;;;;;2.13;1.70;;;11.50;99.90;;;;;;5042656;28;20075;-37
2024/02/10 01:16:25;;;;;;;2.72;1.88;;;11.60;99.90;;;;;;5041883;28;20827;-37
2024/02/10 01:18:51;;;;;;;3.72;2.38;;;11.60;99.90;;;;;;5042132;28;20041;-35
2024/02/10 01:21:18;;;;;;;2.55;1.85;;;11.50;99.90;;;;;;5042548;28;20025;-37
2024/02/10 01:23:46;;;;;;;2.97;1.98;;;11.60;99.90;;;;;;5042069;28;20025;-38
2024/02/10 01:26:12;;;;;;;3.22;1.90;;;11.60;99.90;;;;;;5042556;28;20107;-35
2024/02/10 01:28:40;;;;;;;4.28;2.05;;;11.60;99.90;;;;;;5042198;28;20025;-35
2024/02/10 01:31:06;;;;;;;1.88;1.70;;;11.60;99.90;;;;;;5041358;28;20027;-34
2024/02/10 01:33:32;;;;;;;3.80;1.95;;;11.60;99.90;;;;;;5042504;28;20033;-35
2024/02/10 01:35:59;;;;;;;2.42;1.60;;;11.50;99.90;;;;;;5042070;28;20029;-34
2024/02/10 01:38:37;;;;;;;2.15;1.80;;;11.60;99.90;;;;;;5041162;28;20029;-32
2024/02/10 01:41:03;;;;;;;2.30;1.65;;;11.50;99.90;;;;;;5042151;28;20526;-36
2024/02/10 01:43:29;;;;;;;1.60;1.40;;;11.50;99.90;;;;;;5040923;28;20082;-36
2024/02/10 01:45:55;;;;;;;1.98;1.63;;;11.50;99.90;;;;;;5041676;28;20029;-35
2024/02/10 01:48:22;;;;;;;2.40;1.65;;;11.50;99.90;;;;;;5041896;28;20516;-36
2024/02/10 01:50:48;;;;;;;2.30;1.90;;;11.50;99.90;;;;;;5040913;28;20033;-35
2024/02/10 01:53:14;;;;;;;1.52;1.42;;;11.50;99.90;;;;;;5041392;28;20025;-34
2024/02/10 01:55:40;;;;;;;2.38;1.70;;;11.50;99.90;;;;;;5041978;28;20107;-32
2024/02/10 01:58:06;;;;;;;2.53;1.73;;;11.40;99.90;;;;;;5040698;28;20507;-36
2024/02/10 02:00:32;;;;;;;2.03;1.48;;;11.40;99.90;;;;;;5041327;28;20472;-35
2024/02/10 02:03:01;;;;;;;2.75;1.40;;;11.40;99.90;;;;;;5041535;28;20029;-34
2024/02/10 02:05:30;;;;;;;2.17;1.77;;;11.30;99.90;;;;;;5039897;28;20784;-33
2024/02/10 02:07:56;;;;;;;1.90;1.60;;;11.30;99.90;;;;;;5040781;28;20897;-36
2024/02/10 02:10:22;;;;;;;1.88;1.42;;;11.30;99.90;;;;;;5041642;28;20048;-36
2024/02/10 02:12:50;;;;;;;2.47;1.80;;;11.30;99.90;;;;;;5040771;28;20047;-37
2024/02/10 02:15:22;;;;;;;1.83;1.58;;;11.30;99.90;;;;;;5041273;28;20145;-36
2024/02/10 02:17:51;;;;;;;2.03;1.50;;;11.30;99.90;;;;;;5041323;28;20530;-37
2024/02/10 02:20:17;;;;;;;2.35;1.92;;;11.30;99.90;;;;;;5040344;28;20025;-37
2024/02/10 02:22:49;;;;;;;1.75;1.38;;;11.30;99.90;;;;;;5041289;28;20029;-36
2024/02/10 02:25:15;;;;;;;2.00;1.35;;;11.40;99.90;;;;;;5039957;28;20029;-37
2024/02/10 02:27:41;;;;;;;1.70;1.58;;;11.40;99.90;;;;;;5040417;28;20055;-35
2024/02/10 02:30:07;;;;;;;1.92;1.73;;;11.40;99.90;;;;;;5040714;28;20029;-36
2024/02/10 02:32:35;;;;;;;1.58;1.30;;;11.40;99.90;;;;;;5040120;28;20513;-36
2024/02/10 02:35:09;;;;;;;2.20;1.50;;;11.40;99.90;;;;;;5040649;28;20074;-36
2024/02/10 02:37:35;;;;;;;2.15;1.77;;;11.30;99.90;;;;;;5040669;28;20614;-36
2024/02/10 02:40:05;;;;;;;1.70;1.60;;;11.30;99.90;;;;;;5040453;28;20087;-37
2024/02/10 02:42:31;;;;;;;2.33;1.45;;;11.30;99.90;;;;;;5040354;28;20052;-36
2024/02/10 02:45:05;;;;;;;3.60;1.35;;;11.30;99.90;;;;;;5040848;28;20199;-37
2024/02/10 02:47:37;;;;;;;2.40;1.60;;;11.20;99.90;;;;;;5039809;28;20017;-37
2024/02/10 02:50:04;;;;;;;3.17;1.50;;;11.30;99.90;;;;;;5040972;28;20029;-36
2024/02/10 02:52:30;;;;;;;2.15;1.70;;;11.30;99.90;;;;;;5039391;28;20044;-32
2024/02/10 02:54:57;;;;;;;2.85;2.22;;;11.30;99.90;;;;;;5039383;28;20021;-35
2024/02/10 02:57:23;;;;;;;2.25;1.70;;;11.30;99.90;;;;;;5040436;28;20028;-34
2024/02/10 02:59:49;;;;;;;2.35;1.80;;;11.30;99.90;;;;;;5040469;28;20025;-36
2024/02/10 03:02:16;;;;;;;2.15;1.67;;;11.30;99.90;;;;;;5040064;28;20029;-37
2024/02/10 03:04:42;;;;;;;1.95;1.70;;;11.30;99.90;;;;;;5040727;28;20031;-36
2024/02/10 03:07:09;;;;;;;2.13;1.90;;;11.30;99.90;;;;;;5039391;28;20061;-37
2024/02/10 03:09:37;;;;;;;2.60;1.90;;;11.30;99.90;;;;;;5038718;28;20407;-37
2024/02/10 03:12:03;;;;;;;1.63;1.50;;;11.30;99.90;;;;;;5040295;28;20790;-37
2024/02/10 03:14:28;;;;;;;1.65;1.55;;;11.30;99.90;;;;;;5039690;28;20104;-35
2024/02/10 03:16:54;;;;;;;2.58;1.77;;;11.30;99.90;;;;;;5039922;28;20467;-37
2024/02/10 03:19:20;;;;;;;3.20;1.98;;;11.30;99.90;;;;;;5039703;28;20111;-35
2024/02/10 03:21:46;;;;;;;2.38;1.70;;;11.30;99.90;;;;;;5039665;28;20079;-35
2024/02/10 03:24:12;;;;;;;1.80;1.50;;;11.30;99.90;;;;;;5039105;28;20453;-37
2024/02/10 03:26:37;;;;;;;1.90;1.60;;;11.30;99.90;;;;;;5039430;28;20063;-35
2024/02/10 03:29:05;;;;;;;1.63;1.52;;;11.30;99.90;;;;;;5038726;28;20025;-37
2024/02/10 03:31:31;;;;;;;2.17;1.80;;;11.30;99.90;;;;;;5039672;28;20025;-36
2024/02/10 03:33:57;;;;;;;2.78;2.22;;;11.20;99.90;;;;;;5038925;28;20048;-37
2024/02/10 03:36:24;;;;;;;2.60;1.70;;;11.20;99.90;;;;;;5039291;28;20021;-35
2024/02/10 03:38:54;;;;;;;1.92;1.73;;;11.20;99.90;;;;;;5039742;28;20044;-37
2024/02/10 03:41:20;;;;;;;1.92;1.60;;;11.20;99.90;;;;;;5039532;28;20758;-36
2024/02/10 03:43:46;;;;;;;1.67;1.50;;;11.20;99.90;;;;;;5039159;28;20456;-36
2024/02/10 03:46:14;;;;;;;3.17;1.88;;;11.10;99.90;;;;;;5039043;28;20033;-35
2024/02/10 03:48:46;;;;;;;1.90;1.60;;;11.10;99.90;;;;;;5039865;28;20045;-33
2024/02/10 03:51:12;;;;;;;2.00;1.80;;;11.10;99.90;;;;;;5038272;28;20469;-32
2024/02/10 03:53:38;;;;;;;2.28;1.80;;;11.10;99.90;;;;;;5039890;28;20033;-34
2024/02/10 03:56:04;;;;;;;1.92;1.73;;;11.10;99.90;;;;;;5039740;28;20029;-37
2024/02/10 03:58:30;;;;;;;2.00;1.77;;;11.10;99.90;;;;;;5038767;28;20036;-36
2024/02/10 04:00:57;;;;;;;2.22;1.70;;;11.00;99.90;;;;;;5039380;28;20017;-39
2024/02/10 04:03:27;;;;;;;2.17;1.60;;;11.10;99.90;;;;;;5039254;28;20108;-37
2024/02/10 04:05:53;;;;;;;2.65;1.90;;;11.10;99.90;;;;;;5039248;28;20041;-37
2024/02/10 04:08:19;;;;;;;1.85;1.63;;;11.00;99.90;;;;;;5038293;28;20053;-37
2024/02/10 04:10:45;;;;;;;1.98;1.73;;;11.10;99.90;;;;;;5038637;28;20048;-33
2024/02/10 04:13:11;;;;;;;1.70;1.60;;;11.10;99.90;;;;;;5039203;28;20075;-31
2024/02/10 04:15:37;;;;;;;3.28;1.65;;;11.00;99.90;;;;;;5039551;28;20017;-34
2024/02/10 04:18:05;;;;;;;1.70;1.40;;;11.00;99.90;;;;;;5040666;28;20049;-33
2024/02/10 04:20:31;;;;;;;1.85;1.50;;;11.10;99.90;;;;;;5043341;28;20017;-33
2024/02/10 04:23:03;;;;;;;1.75;1.50;;;11.10;99.90;;;;;;5043023;28;20064;-34
2024/02/10 04:25:31;;;;;;;2.35;1.67;;;11.00;99.90;;;;;;5042305;28;20543;-33
2024/02/10 04:28:02;;;;;;;2.08;1.85;;;11.10;99.90;;;;;;5032280;28;20017;-35
2024/02/10 04:30:30;;;;;;;1.80;1.65;;;11.10;99.90;;;;;;5043078;28;20055;-32
2024/02/10 04:32:56;;;;;;;1.48;1.30;;;11.10;99.90;;;;;;5042376;28;20796;-34
2024/02/10 04:35:22;;;;;;;2.22;1.75;;;11.10;99.90;;;;;;5042540;28;20025;-36
2024/02/10 04:37:55;;;;;;;1.55;1.45;;;11.10;99.90;;;;;;5043711;28;20029;-36
2024/02/10 04:40:25;;;;;;;2.10;1.70;;;11.10;99.90;;;;;;5043077;28;20025;-35
2024/02/10 04:42:52;;;;;;;1.67;1.50;;;11.20;99.90;;;;;;5041980;28;20053;-35
2024/02/10 04:45:29;;;;;;;1.83;1.67;;;11.20;99.90;;;;;;5043337;28;20025;-36
2024/02/10 04:47:56;;;;;;;1.58;1.48;;;11.20;99.90;;;;;;5042195;28;20095;-37
2024/02/10 04:50:22;;;;;;;1.92;1.30;;;11.20;99.90;;;;;;5042847;28;20120;-37
2024/02/10 04:52:48;;;;;;;1.80;1.70;;;11.20;99.90;;;;;;5042754;28;20596;-35
2024/02/10 04:55:15;;;;;;;2.15;1.60;;;11.20;99.90;;;;;;5042746;28;20029;-36
2024/02/10 04:57:41;;;;;;;2.35;1.60;;;11.20;99.90;;;;;;5042702;28;20102;-34
2024/02/10 05:00:15;;;;;;;2.92;1.77;;;11.20;99.90;;;;;;5042642;28;20028;-36
2024/02/10 05:02:53;;;;;;;1.90;1.52;;;11.20;99.90;;;;;;5042567;28;20027;-33
2024/02/10 05:05:22;;;;;;;2.45;1.50;;;11.20;99.90;;;;;;5042333;28;20555;-37
2024/02/10 05:07:53;;;;;;;1.70;1.60;;;11.20;99.90;;;;;;5041754;28;20136;-34
2024/02/10 05:10:18;;;;;;;2.03;1.70;;;11.20;99.90;;;;;;5042438;28;20116;-36
2024/02/10 05:12:49;;;;;;;2.20;1.63;;;11.10;99.90;;;;;;5042362;28;20035;-38
2024/02/10 05:15:19;;;;;;;1.75;1.65;;;11.10;99.90;;;;;;5041420;28;20040;-37
2024/02/10 05:17:52;;;;;;;2.58;2.20;;;11.10;99.90;;;;;;5042402;28;20116;-37
2024/02/10 05:20:21;;;;;;;;;;;11.10;99.90;;;;;;5042742;28;20136;-37
2024/02/10 05:22:48;;;;;;;1.98;1.40;;;11.10;99.90;;;;;;5041325;28;19931;-37
2024/02/10 05:25:21;;;;;;;2.60;1.60;;;11.10;99.90;;;;;;5042181;28;20028;-36
2024/02/10 05:27:48;;;;;;;2.13;1.83;;;11.10;99.90;;;;;;5042205;28;20056;-36
2024/02/10 05:30:19;;;;;;;1.75;1.45;;;11.10;99.90;;;;;;5040277;28;20025;-36
2024/02/10 05:32:45;;;;;;;1.35;1.25;;;11.10;99.90;;;;;;5042319;28;20033;-36
2024/02/10 05:35:20;;;;;;;2.00;1.60;;;11.10;99.90;;;;;;5031176;28;20471;-37
2024/02/10 05:37:49;;;;;;;1.58;1.45;;;11.10;99.90;;;;;;5041709;28;20036;-37
2024/02/10 05:40:15;;;;;;;2.42;1.65;;;11.10;99.90;;;;;;5041839;28;20028;-38
2024/02/10 05:42:45;;;;;;;1.92;1.60;;;11.10;99.90;;;;;;5041492;28;20021;-34
2024/02/10 05:45:12;;;;;;;1.98;1.77;;;11.10;99.90;;;;;;5041615;28;20028;-37
2024/02/10 05:47:39;;;;;;;2.22;1.85;;;11.10;99.90;;;;;;5041286;28;20034;-35
2024/02/10 05:50:08;;;;;;;2.75;1.90;;;11.10;99.90;;;;;;5040819;28;20083;-36
2024/02/10 05:52:34;;;;;;;1.83;1.60;;;11.10;99.90;;;;;;5040950;28;20707;-35
2024/02/10 05:55:03;;;;;;;1.80;1.63;;;11.10;99.90;;;;;;5041001;28;20072;-38
2024/02/10 05:57:29;;;;;;;1.52;1.42;;;11.10;99.90;;;;;;5040962;28;20087;-37
2024/02/10 05:59:55;;;;;;;2.10;1.90;;;11.10;99.90;;;;;;5040758;28;20045;-37
2024/02/10 06:02:21;;;;;;;1.98;1.70;;;11.10;99.90;;;;;;5041017;28;20040;-38
2024/02/10 06:04:50;;;;;;;3.53;1.85;;;11.10;99.90;;;;;;5041219;28;20031;-37
2024/02/10 06:07:18;;;;;;;2.13;1.92;;;11.10;99.90;;;;;;5041098;28;20064;-36
2024/02/10 06:09:44;;;;;;;3.08;1.85;;;11.10;99.90;;;;;;5041033;28;20911;-31
2024/02/10 06:12:10;;;;;;;2.25;1.70;;;11.10;99.90;;;;;;5040750;28;20056;-33
2024/02/10 06:14:37;;;;;;;2.35;1.70;;;11.10;99.90;;;;;;5041095;28;20718;-34
2024/02/10 06:17:04;;;;;;;2.58;2.17;;;11.10;99.90;;;;;;5041436;28;20033;-32
2024/02/10 06:19:29;;;;;;;1.80;1.70;;;11.00;99.90;;;;;;5040578;28;20044;-37
2024/02/10 06:21:55;;;;;;;1.75;1.65;;;11.00;99.90;;;;;;5041155;28;20531;-34
2024/02/10 06:24:24;;;;;;;2.63;1.73;;;11.00;99.90;;;;;;5040372;28;20032;-34
2024/02/10 06:26:50;;;;;;;2.17;1.98;;;11.00;99.90;;;;;;5040457;28;20024;-37
2024/02/10 06:29:16;;;;;;;2.78;2.00;;;11.00;99.90;;;;;;5041056;28;20029;-36
2024/02/10 06:31:42;;;;;;;2.10;1.80;;;11.00;99.90;;;;;;5040737;28;20091;-37
2024/02/10 06:34:08;;;;;;;2.15;1.95;;;11.00;99.90;;;;;;5040972;28;20037;-33
2024/02/10 06:36:34;;;;;;;2.38;2.00;;;11.00;99.90;;;;;;5040195;28;20757;-32
2024/02/10 06:39:00;;;;;;;2.20;2.00;;;11.00;99.90;;;;;;5040457;28;20028;-35
2024/02/10 06:41:30;;;;;;;2.33;2.10;;;11.00;99.90;;;;;;5039702;28;20025;-37
2024/02/10 06:43:55;;;;;;;2.00;1.77;;;11.00;99.90;;;;;;5040873;28;20610;-35
2024/02/10 06:46:24;;;;;;;3.63;2.10;;;11.00;99.90;;;;;;5039918;28;20037;-35
2024/02/10 06:48:50;;;;;;;3.05;2.40;;;11.00;99.90;;;;;;5040056;28;20029;-36
2024/02/10 06:51:18;;;;;;;2.38;2.10;;;11.00;99.90;;;;;;5039656;28;20456;-35
2024/02/10 06:53:43;;;;;;;2.90;2.10;;;11.00;99.90;;;;;;5039769;28;20865;-36
2024/02/10 06:56:15;;;;;;;2.33;2.13;;;11.00;99.90;;;;;;5040497;28;20027;-36
2024/02/10 06:58:41;;;;;;;2.33;2.03;;;11.00;99.90;;;;;;5040488;28;20467;-36
2024/02/10 07:01:08;;;;;;;1.85;1.75;;;11.00;99.90;;;;;;5039088;28;20032;-36
2024/02/10 07:03:35;;;;;;;2.10;1.90;;;11.00;99.90;;;;;;5040127;28;20061;-38
2024/02/10 07:06:02;;;;;;;2.20;2.00;;;11.00;99.90;;;;;;5040236;28;20077;-36
2024/02/10 07:08:29;;;;;;;2.03;1.85;;;11.00;99.90;;;;;;5038533;28;20056;-35
2024/02/10 07:10:58;;;;;;;2.03;1.75;;;11.00;99.90;;;;;;5040205;28;20040;-35
2024/02/10 07:13:24;;;;;;;2.28;2.08;;;10.90;99.90;;;;;;5039705;28;20048;-37
2024/02/10 07:15:54;;;;;;;2.10;1.88;;;11.00;99.90;;;;;;5039173;28;20017;-38
2024/02/10 07:18:20;;;;;;;2.10;1.90;;;10.90;99.90;;;;;;5039681;28;20083;-37
2024/02/10 07:20:45;;;;;;;5.55;2.00;;;10.90;99.90;;;;;;5040088;28;20550;-37
2024/02/10 07:23:11;;;;;;;3.22;2.05;;;10.90;99.90;;;;;;5037608;28;20036;-33
2024/02/10 07:25:38;;;;;;;2.42;1.92;;;10.90;99.90;;;;;;5039120;28;20063;-37
2024/02/10 07:28:05;;;;;;;2.72;2.15;;;10.90;99.90;;;;;;5039297;28;20040;-34
2024/02/10 07:30:33;;;;;;;2.67;2.30;;;10.90;99.90;;;;;;5039846;28;20025;-37
2024/02/10 07:33:08;;;;;;;2.40;2.00;;;10.90;99.90;;;;;;5039772;28;20036;-37
2024/02/10 07:35:37;;;;;;;2.47;2.25;;;11.00;99.90;;;;;;5020000;28;20107;-33
2024/02/10 07:38:03;;;;;;;2.25;2.03;;;11.00;99.90;;;;;;5034528;28;20028;-35
2024/02/10 07:40:29;;;;;;;2.85;2.10;;;11.00;99.90;;;;;;5039419;28;20026;-33
2024/02/10 07:42:57;;;;;;;2.22;2.03;;;11.00;99.90;;;;;;5038993;28;20024;-33
2024/02/10 07:45:23;;;;;;;2.25;1.98;;;11.00;99.90;;;;;;5039575;28;20413;-35
2024/02/10 07:47:50;;;;;;;2.45;2.13;;;11.00;99.90;;;;;;5039044;28;20611;-38
2024/02/10 07:50:15;;;;;;;2.53;2.15;;;11.00;99.90;;;;;;5038693;28;20032;-36
2024/02/10 07:52:45;;;;;;;2.10;1.90;;;11.00;99.90;;;;;;5039208;28;20033;-37
2024/02/10 07:55:12;;;;;;;2.13;1.92;;;11.00;99.90;;;;;;5038900;28;20483;-36
2024/02/10 07:57:41;;;;;;;2.70;2.10;;;11.00;99.90;;;;;;5037930;28;20447;-37
2024/02/10 08:00:11;;;;;;;3.15;2.42;;;11.10;99.90;;;;;;5039715;28;20035;-38
2024/02/10 08:02:37;;;;;;;3.65;2.10;;;11.10;99.90;;;;;;5038672;28;20025;-36
2024/02/10 08:05:04;;;;;;;3.13;2.40;;;11.10;99.90;;;;;;5038481;28;20104;-36
2024/02/10 08:07:30;;;;;;;3.10;2.30;;;11.10;99.90;;;;;;5039005;28;20041;-35
2024/02/10 08:09:57;;;;;;;3.03;2.28;;;11.10;99.90;;;;;;5039513;28;20021;-36
2024/02/10 08:12:24;;;;;;;2.75;2.35;;;11.10;99.90;;;;;;5038998;28;20047;-37
2024/02/10 08:14:51;;;;;;;3.05;2.35;;;11.20;99.90;;;;;;5038562;28;20482;-35
2024/02/10 08:17:17;;;;;;;2.67;2.47;;;11.20;99.90;;;;;;5038434;28;20159;-36
2024/02/10 08:19:43;;;;;;;2.67;2.30;;;11.20;99.90;;;;;;5038936;28;20342;-38
2024/02/10 08:22:13;;;;;;;2.33;2.13;;;11.20;99.90;;;;;;5039190;28;20506;-38
2024/02/10 08:24:39;;;;;;;3.90;2.50;;;11.20;99.90;;;;;;5038167;28;20028;-38
2024/02/10 08:27:08;;;;;;;2.70;2.17;;;11.20;99.90;;;;;;5038667;28;20433;-35
2024/02/10 08:29:34;;;;;;;2.80;2.00;;;11.20;99.90;;;;;;5038885;28;20067;-37
2024/02/10 08:32:03;;;;;;;2.60;2.40;;;11.30;99.90;;;;;;5038532;28;20124;-36
2024/02/10 08:34:31;;;;;;;2.50;2.30;;;11.30;99.90;;;;;;5038598;28;20029;-37
2024/02/10 08:37:03;;;;;;;2.22;2.03;;;11.30;99.90;;;;;;5039207;28;20021;-37
2024/02/10 08:39:29;;;;;;;;;;;11.30;99.90;;;;;;5038261;28;20027;-37
2024/02/10 08:41:54;;;;;;;2.20;2.00;;;11.30;99.90;;;;;;5038940;28;19909;-37
2024/02/10 08:44:21;;;;;;;2.42;2.20;;;11.30;99.90;;;;;;5038729;28;20047;-37
2024/02/10 08:46:47;;;;;;;2.45;2.03;;;11.30;99.90;;;;;;5038392;28;20056;-38
2024/02/10 08:49:14;;;;;;;3.00;2.20;;;11.40;99.90;;;;;;5039243;28;21004;-37
2024/02/10 08:51:49;;;;;;;3.45;2.58;;;11.40;99.90;;;;;;5038920;28;20036;-37
2024/02/10 08:54:16;;;;;;;3.03;2.20;;;11.40;99.90;;;;;;5038180;28;20021;-36
2024/02/10 08:56:44;;;;;;;3.40;2.35;;;11.40;99.90;;;;;;5038938;28;20029;-35
2024/02/10 08:59:13;;;;;;;2.40;2.10;;;11.40;99.90;;;;;;5038565;28;20388;-37
2024/02/10 09:01:42;;;;;;;2.45;2.20;;;11.50;99.90;;;;;;5034062;28;20029;-33
2024/02/10 09:04:08;;;;;;;2.05;1.80;;;11.50;99.90;;;;;;5038277;28;20025;-36
2024/02/10 09:06:35;;;;;;;2.35;1.90;;;11.50;99.90;;;;;;5042200;28;20528;-36
2024/02/10 09:09:01;;;;;;;2.30;2.10;;;11.60;99.90;;;;;;5043038;28;20747;-38
2024/02/10 09:11:27;;;;;;;3.15;2.17;;;11.60;99.90;;;;;;5042121;28;20494;-38
2024/02/10 09:13:53;;;;;;;2.35;1.95;;;11.60;99.90;;;;;;5041951;28;20021;-35
2024/02/10 09:16:20;;;;;;;2.50;2.10;;;11.70;99.90;;;;;;5042186;28;20463;-35
2024/02/10 09:18:46;;;;;;;2.42;2.10;;;11.70;99.90;;;;;;5042657;28;20068;-36
2024/02/10 09:21:14;;;;;;;2.28;1.88;;;11.80;99.90;;;;;;5041844;28;20595;-34
2024/02/10 09:23:42;;;;;;;3.05;1.80;;;11.80;99.90;;;;;;5042491;28;20024;-37
2024/02/10 09:26:08;;;;;;;1.73;1.63;;;11.80;99.90;;;;;;5042031;28;20163;-37
2024/02/10 09:28:34;;;;;;;2.13;1.90;;;11.90;99.90;;;;;;5041759;28;20877;-34
2024/02/10 09:31:01;;;;;;;1.85;1.75;;;12.00;99.90;;;;;;5041905;28;20029;-35
2024/02/10 09:33:28;;;;;;;2.38;1.80;;;12.00;99.90;;;;;;5042156;28;20101;-37
2024/02/10 09:35:53;;;;;;;1.90;1.80;;;12.10;99.90;;;;;;5041264;28;20013;-37
2024/02/10 09:38:22;;;;;;;2.42;1.90;;;12.10;99.90;;;;;;5041580;28;20032;-36
2024/02/10 09:40:56;;;;;;;2.08;1.88;;;12.20;99.90;;;;;;5041950;28;20043;-35
2024/02/10 09:43:31;;;;;;;2.10;2.00;;;12.20;99.90;;;;;;5041216;28;20025;-35
2024/02/10 09:45:59;;;;;;;2.05;1.85;;;12.20;99.90;;;;;;5041896;28;20532;-37
2024/02/10 09:48:26;;;;;;;2.30;1.70;;;12.30;99.90;;;;;;5041570;28;20025;-37
2024/02/10 09:50:52;;;;;;;3.55;2.15;;;12.30;99.90;;;;;;5040195;28;20499;-38
2024/02/10 09:53:17;;;;;;;1.67;1.55;;;12.40;99.90;;;;;;5041639;28;20032;-35
2024/02/10 09:55:43;;;;;;;1.90;1.80;;;12.40;99.90;;;;;;5040509;28;20025;-37
2024/02/10 09:58:09;;;;;;;2.05;1.80;;;12.40;99.90;;;;;;5041141;28;20909;-37
2024/02/10 10:00:37;;;;;;;1.73;1.63;;;12.40;99.90;;;;;;5041147;28;20140;-38
2024/02/10 10:03:03;;;;;;;1.95;1.73;;;12.50;99.90;;;;;;5040339;28;20029;-37
2024/02/10 10:05:29;;;;;;;2.20;2.00;;;12.50;99.90;;;;;;5041652;28;20028;-37
2024/02/10 10:07:58;;;;;;;2.33;1.65;;;12.60;99.90;;;;;;5040606;28;20049;-36
2024/02/10 10:10:23;;;;;;;1.90;1.80;;;12.60;99.90;;;;;;5040222;28;20021;-37
2024/02/10 10:12:49;;;;;;;2.22;2.03;;;12.70;99.90;;;;;;5040851;28;20039;-37
2024/02/10 10:15:15;;;;;;;2.53;2.17;;;12.70;99.90;;;;;;5040749;28;20025;-33
2024/02/10 10:17:41;;;;;;;2.83;2.30;;;12.70;99.90;;;;;;5040243;28;20868;-37
2024/02/10 10:20:09;;;;;;;1.98;1.85;;;12.70;99.90;;;;;;5040469;28;20086;-35
2024/02/10 10:22:36;;;;;;;2.47;1.70;;;12.80;99.90;;;;;;5040776;28;20036;-37
2024/02/10 10:25:02;;;;;;;2.00;1.85;;;12.80;99.90;;;;;;5040565;28;20040;-37
2024/02/10 10:27:31;;;;;;;2.60;1.70;;;12.90;99.90;;;;;;5041038;28;20823;-36
2024/02/10 10:30:00;;;;;;;3.47;1.80;;;13.00;99.90;;;;;;5041040;28;20032;-41
2024/02/10 10:32:27;;;;;;;2.08;1.85;;;13.00;99.90;;;;;;5039555;28;20041;-35
2024/02/10 10:34:59;;;;;;;2.10;1.73;;;13.00;99.90;;;;;;5040579;28;20830;-37
2024/02/10 10:37:26;;;;;;;1.80;1.70;;;13.10;99.90;;;;;;5041114;28;20028;-38
2024/02/10 10:39:55;;;;;;;2.65;1.92;;;13.10;99.90;;;;;;5039228;28;20024;-35
2024/02/10 10:42:23;;;;;;;2.10;1.90;;;13.10;99.90;;;;;;5039837;28;20036;-35
2024/02/10 10:44:51;;;;;;;2.58;1.95;;;13.10;99.90;;;;;;5040427;28;21046;-33
2024/02/10 10:47:23;;;;;;;2.10;1.90;;;13.20;99.90;;;;;;5039711;28;20115;-38
2024/02/10 10:49:51;;;;;;;2.13;1.90;;;13.20;99.90;;;;;;5040377;28;20040;-34
2024/02/10 10:52:20;;;;;;;1.85;1.67;;;13.20;99.90;;;;;;5039545;28;20029;-38
2024/02/10 10:54:51;;;;;;;2.10;1.90;;;13.20;99.90;;;;;;5040013;28;20031;-37
2024/02/10 10:57:28;;;;;;;2.88;1.75;;;13.30;99.90;;;;;;5020797;28;20079;-37
2024/02/10 11:00:12;;;;;;;2.72;1.60;;;13.30;99.90;;;;;;5035858;28;20029;-35
2024/02/10 11:02:40;;;;;;;1.70;1.60;;;13.30;99.90;;;;;;5020982;28;20025;-36
2024/02/10 11:05:12;;;;;;;1.88;1.65;;;13.30;99.90;;;;;;5036269;28;20750;-35
2024/02/10 11:07:45;;;;;;;1.92;1.50;;;13.40;99.90;;;;;;5020359;28;20083;-35
2024/02/10 11:10:10;;;;;;;;;;;13.40;99.90;;;;;;5035850;28;20033;-37
2024/02/10 11:12:36;;;;;;;1.88;1.40;;;13.40;99.90;;;;;;5039778;28;19917;-35
2024/02/10 11:15:05;;;;;;;1.42;1.30;;;13.50;99.90;;;;;;5039501;28;20059;-36
2024/02/10 11:17:34;;;;;;;1.50;1.33;;;13.50;99.90;;;;;;5039065;28;20017;-34
2024/02/10 11:20:05;;;;;;;1.40;1.30;;;13.50;99.90;;;;;;5039763;28;20035;-37
2024/02/10 11:22:48;;;;;;;2.00;1.30;;;13.60;99.90;;;;;;5039347;28;20032;-38
2024/02/10 11:25:22;;;;;;;2.47;1.35;;;13.60;99.90;;;;;;5039693;28;20020;-37
2024/02/10 11:27:48;;;;;;;2.05;1.33;;;13.70;99.90;;;;;;5039194;28;20018;-39
2024/02/10 11:30:14;;;;;;;1.73;1.50;;;13.70;99.90;;;;;;5039167;28;20090;-38
2024/02/10 11:32:42;;;;;;;1.33;1.13;;;13.80;99.90;;;;;;5040051;28;20472;-31
2024/02/10 11:35:12;;;;;;;1.50;1.40;;;13.80;99.90;;;;;;5039081;28;20464;-36
2024/02/10 11:37:38;;;;;;;1.40;1.30;;;13.80;99.90;;;;;;5040021;28;20078;-38
2024/02/10 11:40:04;;;;;;;1.30;1.20;;;13.90;99.90;;;;;;5039979;28;20028;-37
2024/02/10 11:42:30;;;;;;;1.60;1.38;;;13.90;99.90;;;;;;5038649;28;20029;-36
2024/02/10 11:44:59;;;;;;;1.83;1.42;;;14.00;99.90;;;;;;5039401;28;20023;-37
2024/02/10 11:47:27;;;;;;;1.60;1.50;;;14.00;99.90;;;;;;5040022;28;20025;-33
2024/02/10 11:49:53;;;;;;;1.67;1.40;;;14.00;99.90;;;;;;5039115;28;20025;-35
2024/02/10 11:52:18;;;;;;;1.30;1.20;;;14.10;99.90;;;;;;5039686;28;20102;-34
2024/02/10 11:54:45;;;;;;;2.90;1.45;;;14.10;99.90;;;;;;5039268;28;20472;-36
2024/02/10 11:57:12;;;;;;;3.15;1.60;;;14.10;99.90;;;;;;5037404;28;20029;-36
2024/02/10 11:59:38;;;;;;;1.42;1.33;;;14.20;99.90;;;;;;5037810;28;20070;-36
2024/02/10 12:02:15;;;;;;;1.80;1.63;;;14.10;99.90;;;;;;5038186;28;20029;-35
2024/02/10 12:04:47;;;;;;;1.40;1.30;;;14.20;99.90;;;;;;5038253;28;20031;-34
2024/02/10 12:07:13;;;;;;;1.40;1.25;;;14.20;99.90;;;;;;5038350;28;20029;-40
2024/02/10 12:09:39;;;;;;;1.67;1.40;;;14.20;99.90;;;;;;5018563;28;20045;-35
2024/02/10 12:12:06;;;;;;;1.60;1.50;;;14.20;99.90;;;;;;5033407;28;20033;-37
2024/02/10 12:14:31;;;;;;;1.60;1.40;;;14.20;99.90;;;;;;5039438;28;20121;-36
2024/02/10 12:17:02;;;;;;;1.10;1.05;;;14.20;99.90;;;;;;5038780;28;20049;-36
2024/02/10 12:19:28;;;;;;;2.85;1.30;;;14.30;99.90;;;;;;5038599;28;20017;-37
2024/02/10 12:21:54;;;;;;;1.90;1.20;;;14.30;99.90;;;;;;5038912;28;20029;-35
2024/02/10 12:24:23;;;;;;;1.70;1.20;;;14.30;99.90;;;;;;5039042;28;20024;-38
2024/02/10 12:26:48;;;;;;;2.05;1.30;;;14.40;99.90;;;;;;5039546;28;20322;-34
2024/02/10 12:29:14;;;;;;;1.20;1.10;;;14.40;99.90;;;;;;5039534;28;20041;-38
2024/02/10 12:31:40;;;;;;;1.92;1.20;;;14.40;99.90;;;;;;5039117;28;20025;-38
2024/02/10 12:34:09;;;;;;;3.03;1.65;;;14.40;99.90;;;;;;5039275;28;20544;-32
2024/02/10 12:36:35;;;;;;;2.05;1.85;;;14.40;99.90;;;;;;5039174;28;20128;-41
2024/02/10 12:39:00;;;;;;;2.47;1.77;;;14.40;99.90;;;;;;5039518;28;20025;-33
2024/02/10 12:41:26;;;;;;;3.33;2.28;;;14.40;99.90;;;;;;5043044;28;20032;-37
2024/02/10 12:43:52;;;;;;;3.83;2.58;;;14.40;99.90;;;;;;5043324;28;20388;-35
2024/02/10 12:46:21;;;;;;;4.13;2.88;;;14.40;99.90;;;;;;5042757;28;20767;-36
2024/02/10 12:48:50;;;;;;;2.97;2.70;;;14.30;99.90;;;;;;5043014;28;20028;-34